Estación de Petorca

Ultimos registro cada 15 minutos 81
Estación Fecha / Hora Temperatura Humedad Lluvia Velocidad Dirección Radiación Presion
81 Petorca 30-08-2026 20:00 13,5 81,2 0 0 192 0,6 987,2
80 Petorca 30-08-2026 19:45 14 77,9 0 1 201 0,6 987
79 Petorca 30-08-2026 19:30 14,2 76 0 0 215 0,6 986,8
78 Petorca 30-08-2026 19:15 14,4 75,5 0 1,5 213 0,6 986,7
77 Petorca 30-08-2026 19:00 14,6 74,2 0 0,5 183 0,6 986,2
76 Petorca 30-08-2026 18:45 14,7 74 0 0,5 174 0,6 986,1
75 Petorca 30-08-2026 18:30 14,9 72,7 0 0 140 0,6 985,9
74 Petorca 30-08-2026 18:15 15,4 68,5 0 0 195 3,1 985,8
73 Petorca 30-08-2026 18:00 15,8 68,2 0 0 218 10,6 985,6
72 Petorca 30-08-2026 17:45 16,2 66,4 0 0 271 18,1 985,6
71 Petorca 30-08-2026 17:30 16,6 62,6 0 0,5 268 33,1 985,2
70 Petorca 30-08-2026 17:15 16,9 63,5 0 0 271 58,1 985,3
69 Petorca 30-08-2026 17:00 17,4 62,2 0 0,5 261 79,4 984,9
68 Petorca 30-08-2026 16:45 17,8 59,5 0 1,5 229 151,9 984,9
67 Petorca 30-08-2026 16:30 18,1 56,8 0 2 211 183,1 984,8
66 Petorca 30-08-2026 16:15 18,7 57,7 0 2 219 264,4 984,5
65 Petorca 30-08-2026 16:00 19,7 55,4 0 3 209 575,6 984,4
64 Petorca 30-08-2026 15:45 20,2 56,4 0 2,5 208 741,9 984,4
63 Petorca 30-08-2026 15:30 19,3 57,8 0 3 206 608,1 984,6
62 Petorca 30-08-2026 15:15 19,7 56,9 0 2,5 209 720,6 984,5
61 Petorca 30-08-2026 15:00 19,4 58,1 0 2,5 222 605,6 984,6
60 Petorca 30-08-2026 14:45 19 57,4 0 2 211 385,6 984,7
59 Petorca 30-08-2026 14:30 19 58,2 0 2,5 209 328,1 984,8
58 Petorca 30-08-2026 14:15 20 54,7 0 3 215 906,9 984,7
57 Petorca 30-08-2026 14:00 19,4 56,7 0 3 208 315,6 984,9
56 Petorca 30-08-2026 13:45 19,7 55 0 3 223 910,6 985
55 Petorca 30-08-2026 13:30 18,5 63,1 0 2,5 225 589,4 985,2
54 Petorca 30-08-2026 13:15 19,1 60,9 0 2 229 856,9 985,2
53 Petorca 30-08-2026 13:00 18,7 65,3 0 2 225 619,4 985,4
52 Petorca 30-08-2026 12:45 18,6 63,3 0 2 215 410,6 985,4
51 Petorca 30-08-2026 12:30 18,3 65 0 2 223 765,6 985,6
50 Petorca 30-08-2026 12:15 18,1 66,5 0 2 225 638,1 985,6
49 Petorca 30-08-2026 12:00 17,7 65 0 2 226 778,1 985,7
48 Petorca 30-08-2026 11:45 17,6 64,2 0 1,5 218 750,6 985,8
47 Petorca 30-08-2026 11:30 17,6 62,7 0 1 211 731,9 985,7
46 Petorca 30-08-2026 11:15 17,2 61,9 0 0,5 191 705,6 985,9
45 Petorca 30-08-2026 11:00 17,3 61,6 0 0,5 225 680,6 985,9
44 Petorca 30-08-2026 10:45 16,9 63,7 0 0,5 220 650,6 985,9
43 Petorca 30-08-2026 10:30 16,6 62,8 0 0 125 614,4 985,9
42 Petorca 30-08-2026 10:15 17 58,8 0 0 288 580,6 985,9
41 Petorca 30-08-2026 10:00 15,7 66,3 0 0 246 539,4 986,1
40 Petorca 30-08-2026 09:45 15 70,2 0 0 139 498,1 986
39 Petorca 30-08-2026 09:30 13,7 70,5 0 0 173 453,1 986
38 Petorca 30-08-2026 09:15 12,5 74,5 0 0 201 405,6 986
37 Petorca 30-08-2026 09:00 12,3 75,4 0 0 31 358,1 985,9
36 Petorca 30-08-2026 08:45 11,6 81,9 0 0 45 304,4 985,9
35 Petorca 30-08-2026 08:30 10,4 92,1 0 0 41 256,9 985,8
34 Petorca 30-08-2026 08:15 7,7 97,6 0 0 37 206,9 985,5
33 Petorca 30-08-2026 08:00 5,2 97,5 0 0 31 21,9 985,7
32 Petorca 30-08-2026 07:45 5 97,5 0 0 35 18,1 985,5
31 Petorca 30-08-2026 07:30 4,7 97,3 0 0 18 13,1 985,4
30 Petorca 30-08-2026 07:15 4,9 97,5 0 0 6 5,6 985,3
29 Petorca 30-08-2026 07:00 5 97,5 0 0 55 0,6 985,1
28 Petorca 30-08-2026 06:45 4,8 97,3 0 0 20 0,6 984,8
27 Petorca 30-08-2026 06:30 4,5 97,2 0 0 21 0,6 984,8
26 Petorca 30-08-2026 06:15 4,7 97,1 0 0 34 0,6 984,8
25 Petorca 30-08-2026 06:00 4,4 96,8 0 0 24 0,6 984,5
24 Petorca 30-08-2026 05:45 4,8 96,8 0 0 358 0,6 984,4
23 Petorca 30-08-2026 05:30 4,5 96,5 0 0 4 0,6 984,3
22 Petorca 30-08-2026 05:15 4,9 96,3 0 0 6 0,6 984,1
21 Petorca 30-08-2026 05:00 5,1 95,8 0 0 10 0,6 984
20 Petorca 30-08-2026 04:45 5,3 95,2 0 0 13 0,6 983,9
19 Petorca 30-08-2026 04:30 6,1 96 0 0 27 0,6 983,7
18 Petorca 30-08-2026 04:15 5,7 96 0 0 21 0,6 983,6
17 Petorca 30-08-2026 04:00 5,6 96,1 0 0 31 0,6 983,5
16 Petorca 30-08-2026 03:45 5,4 95,9 0 0 32 0,6 983,5
15 Petorca 30-08-2026 03:30 5,8 95,9 0 0 13 0,6 983,4
14 Petorca 30-08-2026 03:15 5,6 95,6 0 0 3 0,6 983,4
13 Petorca 30-08-2026 03:00 5,8 95,1 0 0 7 0,6 983,5
12 Petorca 30-08-2026 02:45 6,3 95,1 0 0 20 0,6 983,6
11 Petorca 30-08-2026 02:30 5,9 94,7 0 0 28 0,6 983,6
10 Petorca 30-08-2026 02:15 5,7 93,7 0 0 38 0,6 983,8
9 Petorca 30-08-2026 02:00 6,2 92,6 0 0 38 0,6 983,8
8 Petorca 30-08-2026 01:45 7,3 90,5 0 0 29 0,6 983,8
7 Petorca 30-08-2026 01:30 7,3 90,9 0 0 13 0,6 983,7
6 Petorca 30-08-2026 01:15 7,2 91 0 0 18 0,6 983,9
5 Petorca 30-08-2026 01:00 7,3 91,1 0 0 28 0,6 983,9
4 Petorca 30-08-2026 00:45 7,6 89,4 0 0 46 0,6 984,1
3 Petorca 30-08-2026 00:30 7,9 88,3 0 0 41 0,6 984,1
2 Petorca 30-08-2026 00:15 8,9 85,6 0 0 25 0,6 984,1
1 Petorca 30-08-2026 00:00 8,4 89,1 0 0 20 0,6 984,3